createdAt,value
2017-07-10T00:01:24.920Z,23.84
2017-07-10T00:03:54.409Z,23.72
2017-07-10T00:06:26.856Z,24.02
2017-07-10T00:08:56.950Z,24.08
2017-07-10T00:11:24.627Z,24.19
2017-07-10T00:13:52.407Z,24.16
2017-07-10T00:16:20.010Z,24.18
2017-07-10T00:18:47.652Z,24.20
2017-07-10T00:21:15.302Z,24.16
2017-07-10T00:23:42.868Z,24.10
2017-07-10T00:26:10.508Z,24.12
2017-07-10T00:28:38.164Z,24.14
2017-07-10T00:31:05.851Z,24.24
2017-07-10T00:33:34.243Z,24.20
2017-07-10T00:36:01.876Z,24.20
2017-07-10T00:38:29.566Z,24.17
2017-07-10T00:40:57.249Z,24.22
2017-07-10T00:43:24.878Z,24.08
2017-07-10T00:45:52.542Z,23.91
2017-07-10T00:48:20.127Z,23.96
2017-07-10T00:50:47.885Z,23.91
2017-07-10T00:53:16.659Z,23.90
2017-07-10T00:55:45.775Z,23.79
2017-07-10T00:58:14.562Z,23.86
2017-07-10T01:00:42.274Z,23.83
2017-07-10T01:03:10.529Z,23.79
2017-07-10T01:05:38.140Z,23.76
2017-07-10T01:08:05.853Z,23.75
2017-07-10T01:10:33.512Z,23.79
2017-07-10T01:13:01.124Z,23.74
2017-07-10T01:15:29.079Z,23.64
2017-07-10T01:17:57.873Z,23.64
2017-07-10T01:20:25.675Z,23.67
2017-07-10T01:22:54.177Z,23.68
2017-07-10T01:25:21.811Z,23.65
2017-07-10T01:27:49.784Z,23.60
2017-07-10T01:30:17.848Z,23.56
2017-07-10T01:32:45.506Z,23.57
2017-07-10T01:35:14.687Z,23.53
2017-07-10T01:37:43.813Z,23.62
2017-07-10T01:40:11.925Z,23.63
2017-07-10T01:42:41.505Z,23.52
2017-07-10T01:45:10.083Z,23.34
2017-07-10T01:47:38.652Z,23.32
2017-07-10T01:50:07.186Z,23.40
2017-07-10T01:52:35.946Z,23.42
2017-07-10T01:55:04.340Z,23.29
2017-07-10T01:57:32.990Z,23.23
2017-07-10T02:00:01.527Z,23.12
2017-07-10T02:02:29.954Z,23.13
2017-07-10T02:04:57.733Z,23.00
2017-07-10T02:07:26.243Z,23.08
2017-07-10T02:09:54.590Z,23.15
2017-07-10T02:12:23.041Z,23.20
2017-07-10T02:14:50.639Z,23.20
2017-07-10T02:17:18.327Z,23.22
2017-07-10T02:19:46.013Z,23.19
2017-07-10T02:22:13.786Z,23.15
2017-07-10T02:24:41.425Z,23.09
2017-07-10T02:27:09.431Z,23.06
2017-07-10T02:29:37.247Z,23.06
2017-07-10T02:32:05.048Z,23.00
2017-07-10T02:34:33.920Z,22.99
2017-07-10T02:37:01.579Z,22.93
2017-07-10T02:39:29.901Z,22.83
2017-07-10T02:41:57.552Z,23.06
2017-07-10T02:44:25.145Z,23.08
2017-07-10T02:46:54.225Z,23.03
2017-07-10T02:49:23.370Z,23.01
2017-07-10T02:51:50.983Z,22.86
2017-07-10T02:54:18.840Z,22.85
2017-07-10T02:56:46.421Z,22.91
2017-07-10T02:59:14.070Z,22.83
2017-07-10T03:01:41.704Z,22.65
2017-07-10T03:04:09.307Z,22.67
2017-07-10T03:06:36.895Z,22.32
2017-07-10T03:09:04.579Z,22.06
2017-07-10T03:11:32.403Z,21.76
2017-07-10T03:14:00.016Z,21.42
2017-07-10T03:16:27.646Z,21.30
2017-07-10T03:18:55.366Z,21.46
2017-07-10T03:21:23.863Z,21.46
2017-07-10T03:23:51.489Z,21.46
2017-07-10T03:26:19.137Z,21.44
2017-07-10T03:28:46.825Z,21.73
2017-07-10T03:31:14.413Z,22.00
2017-07-10T03:33:42.026Z,22.24
2017-07-10T03:36:09.637Z,22.40
2017-07-10T03:38:37.295Z,22.46
2017-07-10T03:41:05.519Z,22.42
2017-07-10T03:43:33.282Z,22.64
2017-07-10T03:46:00.971Z,22.78
2017-07-10T03:48:28.565Z,22.80
2017-07-10T03:50:56.777Z,22.81
2017-07-10T03:53:24.395Z,22.49
2017-07-10T03:55:52.186Z,22.64
2017-07-10T03:58:19.837Z,22.49
2017-07-10T04:00:47.491Z,22.15
2017-07-10T04:03:15.079Z,22.06
2017-07-10T04:05:42.745Z,21.84
2017-07-10T04:08:10.432Z,21.64
2017-07-10T04:10:38.303Z,21.34
2017-07-10T04:13:05.953Z,21.67
2017-07-10T04:15:33.602Z,22.07
2017-07-10T04:18:01.342Z,22.36
2017-07-10T04:20:28.970Z,22.36
2017-07-10T04:22:56.627Z,22.64
2017-07-10T04:25:24.415Z,23.15
2017-07-10T04:27:52.139Z,22.99
2017-07-10T04:30:21.991Z,22.96
2017-07-10T04:32:53.224Z,23.41
2017-07-10T04:38:41.435Z,24.83
2017-07-10T04:41:09.235Z,25.04
2017-07-10T04:43:36.875Z,25.16
2017-07-10T04:46:04.471Z,25.50
2017-07-10T04:48:32.136Z,25.46
2017-07-10T04:50:59.685Z,25.65
2017-07-10T04:53:27.445Z,25.71
2017-07-10T04:55:55.135Z,25.56
2017-07-10T04:58:22.931Z,25.98
2017-07-10T05:00:50.603Z,25.71
2017-07-10T05:03:18.146Z,24.94
2017-07-10T05:05:45.725Z,24.64
2017-07-10T05:08:13.306Z,24.56
2017-07-10T05:10:40.842Z,24.60
2017-07-10T05:13:08.426Z,24.59
2017-07-10T05:15:37.081Z,24.66
2017-07-10T05:18:04.631Z,24.48
2017-07-10T05:20:32.186Z,24.38
2017-07-10T05:22:59.795Z,24.49
2017-07-10T05:25:27.377Z,24.43
2017-07-10T05:27:54.926Z,24.53
2017-07-10T05:30:22.644Z,24.69
2017-07-10T05:32:50.581Z,24.81
2017-07-10T05:35:18.138Z,25.03
2017-07-10T05:37:45.741Z,25.03
2017-07-10T05:40:13.386Z,25.23
2017-07-10T05:42:41.183Z,25.52
2017-07-10T05:45:08.786Z,25.65
2017-07-10T05:47:37.478Z,25.93
2017-07-10T05:50:05.123Z,25.90
2017-07-10T05:52:32.711Z,26.19
2017-07-10T05:55:00.351Z,26.35
2017-07-10T05:57:27.909Z,26.41
2017-07-10T05:59:55.509Z,26.69
2017-07-10T06:02:23.109Z,26.96
2017-07-10T06:04:50.886Z,26.86
2017-07-10T06:07:18.716Z,26.62
2017-07-10T06:09:46.270Z,26.39
2017-07-10T06:12:13.828Z,25.53
2017-07-10T06:14:41.370Z,26.01
2017-07-10T06:17:09.022Z,26.01
2017-07-10T06:19:36.609Z,26.04
2017-07-10T06:22:04.865Z,25.93
2017-07-10T06:24:32.443Z,25.91
2017-07-10T06:27:00.049Z,26.05
2017-07-10T06:29:27.635Z,26.24
2017-07-10T06:31:55.419Z,26.50
2017-07-10T06:34:23.063Z,26.34
2017-07-10T06:36:51.286Z,26.20
2017-07-10T06:39:18.950Z,26.49
2017-07-10T06:41:46.518Z,26.61
2017-07-10T06:44:15.634Z,26.46
2017-07-10T06:46:43.215Z,26.87
2017-07-10T06:49:10.993Z,27.72
2017-07-10T06:51:38.523Z,28.18
2017-07-10T06:54:06.200Z,27.71
2017-07-10T06:56:34.476Z,27.41
2017-07-10T06:59:02.047Z,27.32
2017-07-10T07:01:29.670Z,27.00
2017-07-10T07:03:57.250Z,27.30
2017-07-10T07:06:24.828Z,27.13
2017-07-10T07:08:52.431Z,27.18
2017-07-10T07:11:24.010Z,27.39
2017-07-10T07:13:51.784Z,27.44
2017-07-10T07:16:19.513Z,27.55
2017-07-10T07:18:47.487Z,27.48
2017-07-10T07:21:15.271Z,27.56
2017-07-10T07:23:44.138Z,27.97
2017-07-10T07:26:11.689Z,28.20
2017-07-10T07:28:39.484Z,28.01
2017-07-10T07:31:07.097Z,28.25
2017-07-10T07:33:34.652Z,28.53
2017-07-10T07:36:02.339Z,28.96
2017-07-10T07:38:30.109Z,29.00
2017-07-10T07:40:57.924Z,28.86
2017-07-10T07:43:25.505Z,29.45
2017-07-10T07:45:53.346Z,29.41
2017-07-10T07:48:20.960Z,29.24
2017-07-10T07:50:48.519Z,29.25
2017-07-10T07:53:16.224Z,29.39
2017-07-10T07:55:44.116Z,29.69
2017-07-10T07:58:11.920Z,29.55
2017-07-10T08:00:39.540Z,29.42
2017-07-10T08:03:07.134Z,29.67
2017-07-10T08:05:34.734Z,29.76
2017-07-10T08:08:02.327Z,30.01
2017-07-10T08:10:30.153Z,30.38
2017-07-10T08:12:57.781Z,30.63
2017-07-10T08:15:25.406Z,30.17
2017-07-10T08:17:53.031Z,30.48
2017-07-10T08:20:20.590Z,30.38
2017-07-10T08:22:48.485Z,30.25
2017-07-10T08:25:16.066Z,30.05
2017-07-10T08:27:43.728Z,30.38
2017-07-10T08:30:11.417Z,30.33
2017-07-10T08:32:38.979Z,30.20
2017-07-10T08:35:06.546Z,30.07
2017-07-10T08:37:34.349Z,30.00
2017-07-10T08:40:01.924Z,30.21
2017-07-10T08:42:29.503Z,30.30
2017-07-10T08:44:57.081Z,30.39
2017-07-10T08:47:24.648Z,30.77
2017-07-10T08:49:52.355Z,30.92
2017-07-10T08:52:19.946Z,30.90
2017-07-10T08:54:47.498Z,31.05
2017-07-10T08:57:15.337Z,30.83
2017-07-10T08:59:42.928Z,31.26
2017-07-10T09:02:10.554Z,30.99
2017-07-10T09:04:38.230Z,31.14
2017-07-10T09:07:05.818Z,31.03
2017-07-10T09:09:33.662Z,31.10
2017-07-10T09:12:01.406Z,30.98
2017-07-10T09:14:30.054Z,31.07
2017-07-10T09:16:57.872Z,31.50
2017-07-10T09:19:25.581Z,31.19
2017-07-10T09:21:53.142Z,31.22
2017-07-10T09:24:21.223Z,31.64
2017-07-10T09:26:48.860Z,31.39
2017-07-10T09:29:16.660Z,31.45
2017-07-10T09:31:44.762Z,31.40
2017-07-10T09:34:12.371Z,31.55
2017-07-10T09:36:39.988Z,31.34
2017-07-10T09:39:07.629Z,31.61
2017-07-10T09:41:36.161Z,31.72
2017-07-10T09:44:04.096Z,31.97
2017-07-10T09:46:31.704Z,32.18
2017-07-10T09:48:59.578Z,32.33
2017-07-10T09:51:27.108Z,32.14
2017-07-10T09:53:54.759Z,31.81
2017-07-10T09:56:24.018Z,32.30
2017-07-10T09:58:51.563Z,32.09
2017-07-10T10:01:19.304Z,32.58
2017-07-10T10:03:46.924Z,32.44
2017-07-10T10:06:15.521Z,32.87
2017-07-10T10:08:43.101Z,33.29
2017-07-10T10:11:13.856Z,32.94
2017-07-10T10:13:41.452Z,32.93
2017-07-10T10:16:09.076Z,33.05
2017-07-10T10:18:36.884Z,33.30
2017-07-10T10:21:04.696Z,33.77
2017-07-10T10:23:32.841Z,33.66
2017-07-10T10:26:00.965Z,33.98
2017-07-10T10:28:28.502Z,34.37
2017-07-10T10:30:56.129Z,34.68
2017-07-10T10:33:23.665Z,34.50
2017-07-10T10:35:51.293Z,34.08
2017-07-10T10:38:18.906Z,34.25
2017-07-10T10:40:47.238Z,34.63
2017-07-10T10:43:14.818Z,34.12
2017-07-10T10:45:42.471Z,33.76
2017-07-10T10:48:10.014Z,33.55
2017-07-10T10:50:37.628Z,33.36
2017-07-10T10:53:05.231Z,33.65
2017-07-10T10:55:32.798Z,33.82
2017-07-10T10:58:00.630Z,33.58
2017-07-10T11:00:28.265Z,33.61
2017-07-10T11:02:55.808Z,33.45
2017-07-10T11:05:23.420Z,33.22
2017-07-10T11:07:51.009Z,33.71
2017-07-10T11:10:18.590Z,34.04
2017-07-10T11:12:46.381Z,34.28
2017-07-10T11:15:13.993Z,34.11
2017-07-10T11:17:41.566Z,34.36
2017-07-10T11:20:09.133Z,34.20
2017-07-10T11:22:36.739Z,34.17
2017-07-10T11:25:05.018Z,33.47
2017-07-10T11:27:32.584Z,34.07
2017-07-10T11:30:00.211Z,33.66
2017-07-10T11:32:27.790Z,33.92
2017-07-10T11:34:55.448Z,34.29
2017-07-10T11:37:23.034Z,34.57
2017-07-10T11:39:50.838Z,34.65
2017-07-10T11:42:18.583Z,34.53
2017-07-10T11:44:46.163Z,34.88
2017-07-10T11:47:13.714Z,34.91
2017-07-10T11:49:41.475Z,34.88
2017-07-10T11:52:09.218Z,35.02
2017-07-10T11:54:36.826Z,35.16
2017-07-10T11:57:04.419Z,35.21
2017-07-10T11:59:33.865Z,35.34
2017-07-10T12:02:01.417Z,34.99
2017-07-10T12:04:28.975Z,34.60
2017-07-10T12:06:56.563Z,34.39
2017-07-10T12:09:24.150Z,34.44
2017-07-10T12:11:51.817Z,34.35
2017-07-10T12:14:19.591Z,34.53
2017-07-10T12:16:47.194Z,34.59
2017-07-10T12:19:15.055Z,34.82
2017-07-10T12:21:42.581Z,35.21
2017-07-10T12:24:10.136Z,35.33
2017-07-10T12:26:38.014Z,35.42
2017-07-10T12:29:05.667Z,35.39
2017-07-10T12:31:33.316Z,35.41
2017-07-10T12:34:01.748Z,34.74
2017-07-10T12:36:29.560Z,34.84
2017-07-10T12:38:57.181Z,35.00
2017-07-10T12:41:24.757Z,34.95
2017-07-10T12:43:52.503Z,34.88
2017-07-10T12:46:20.644Z,34.70
2017-07-10T12:48:48.188Z,34.49
2017-07-10T12:51:15.726Z,34.26
2017-07-10T12:53:43.336Z,34.40
2017-07-10T12:56:11.231Z,34.16
2017-07-10T12:58:38.740Z,33.99
2017-07-10T13:01:06.335Z,33.95
2017-07-10T13:03:33.910Z,33.78
2017-07-10T13:06:01.437Z,34.09
2017-07-10T13:08:29.039Z,34.02
2017-07-10T13:10:56.647Z,34.36
2017-07-10T13:13:24.239Z,34.42
2017-07-10T13:15:51.870Z,34.64
2017-07-10T13:18:19.406Z,34.61
2017-07-10T13:20:46.937Z,34.45
2017-07-10T13:23:14.519Z,34.58
2017-07-10T13:25:42.050Z,34.71
2017-07-10T13:28:09.566Z,34.75
2017-07-10T13:30:37.234Z,34.80
2017-07-10T13:33:04.879Z,34.65
2017-07-10T13:35:32.680Z,34.24
2017-07-10T13:38:00.258Z,33.76
2017-07-10T13:40:27.913Z,33.67
2017-07-10T13:42:55.446Z,33.43
2017-07-10T13:45:23.022Z,33.70
2017-07-10T13:47:50.759Z,33.46
2017-07-10T13:50:18.380Z,33.67
2017-07-10T13:52:46.148Z,33.68
2017-07-10T13:55:13.683Z,33.80
2017-07-10T13:57:41.238Z,33.93
2017-07-10T14:00:09.820Z,33.87
2017-07-10T14:02:37.434Z,33.83
2017-07-10T14:05:05.262Z,33.54
2017-07-10T14:07:32.889Z,33.67
2017-07-10T14:10:01.329Z,33.52
2017-07-10T14:12:29.207Z,33.56
2017-07-10T14:14:56.811Z,33.57
2017-07-10T14:17:24.315Z,33.81
2017-07-10T14:19:51.858Z,33.72
2017-07-10T14:22:19.455Z,33.54
2017-07-10T14:24:47.079Z,33.38
2017-07-10T14:27:14.646Z,33.41
2017-07-10T14:29:42.227Z,33.42
2017-07-10T14:32:09.801Z,33.31
2017-07-10T14:34:37.422Z,33.22
2017-07-10T14:37:05.022Z,33.04
2017-07-10T14:39:32.654Z,33.21
2017-07-10T14:42:00.303Z,33.38
2017-07-10T14:44:28.044Z,33.54
2017-07-10T14:46:55.672Z,33.42
2017-07-10T14:49:23.245Z,33.32
2017-07-10T14:51:50.815Z,33.41
2017-07-10T14:54:18.424Z,33.50
2017-07-10T14:56:45.960Z,33.46
2017-07-10T14:59:13.745Z,33.38
2017-07-10T15:01:42.659Z,33.41
2017-07-10T15:04:10.231Z,33.49
2017-07-10T15:06:37.817Z,33.38
2017-07-10T15:09:05.569Z,33.31
2017-07-10T15:11:33.128Z,33.18
2017-07-10T15:14:00.693Z,33.13
2017-07-10T15:16:28.441Z,33.01
2017-07-10T15:18:56.049Z,32.86
2017-07-10T15:21:24.126Z,32.90
2017-07-10T15:23:52.333Z,33.08
2017-07-10T15:26:19.941Z,32.94
2017-07-10T15:28:49.060Z,32.62
2017-07-10T15:31:17.491Z,32.48
2017-07-10T15:33:45.166Z,32.56
2017-07-10T15:36:12.718Z,32.45
2017-07-10T15:38:40.307Z,32.16
2017-07-10T15:41:07.875Z,32.09
2017-07-10T15:43:35.609Z,32.04
2017-07-10T15:46:03.232Z,32.06
2017-07-10T15:48:30.797Z,32.10
2017-07-10T15:50:58.345Z,32.19
2017-07-10T15:53:25.990Z,32.22
2017-07-10T15:55:53.614Z,32.27
2017-07-10T15:58:21.389Z,32.20
2017-07-10T16:00:51.239Z,32.17
2017-07-10T16:03:18.896Z,32.03
2017-07-10T16:05:46.439Z,32.06
2017-07-10T16:08:14.042Z,32.22
2017-07-10T16:10:42.911Z,32.19
2017-07-10T16:13:10.495Z,32.23
2017-07-10T16:15:38.096Z,32.22
2017-07-10T16:18:06.546Z,32.26
2017-07-10T16:20:34.175Z,32.04
2017-07-10T16:23:01.807Z,31.91
2017-07-10T16:25:29.776Z,31.85
2017-07-10T16:27:57.377Z,31.82
2017-07-10T16:30:24.993Z,31.73
2017-07-10T16:32:52.614Z,31.64
2017-07-10T16:35:20.302Z,31.66
2017-07-10T16:37:47.924Z,31.56
2017-07-10T16:40:16.121Z,31.39
2017-07-10T16:42:44.329Z,31.47
2017-07-10T16:45:12.018Z,31.51
2017-07-10T16:47:39.687Z,31.48
2017-07-10T16:50:07.293Z,31.19
2017-07-10T16:52:35.468Z,31.17
2017-07-10T16:55:03.227Z,31.16
2017-07-10T16:57:30.762Z,31.09
2017-07-10T16:59:58.417Z,31.17
2017-07-10T17:02:26.135Z,31.08
2017-07-10T17:04:53.729Z,31.15
2017-07-10T17:07:21.331Z,31.09
2017-07-10T17:32:12.808Z,29.88
2017-07-10T17:34:40.436Z,30.03
2017-07-10T17:37:08.011Z,30.03
2017-07-10T17:39:36.483Z,30.00
2017-07-10T17:42:04.160Z,30.03
2017-07-10T17:44:31.784Z,30.04
2017-07-10T17:46:59.553Z,29.98
2017-07-10T17:49:27.358Z,29.75
2017-07-10T17:51:55.038Z,29.59
2017-07-10T17:54:22.786Z,29.59
2017-07-10T17:56:50.435Z,29.54
2017-07-10T17:59:18.226Z,29.45
2017-07-10T18:01:45.886Z,29.43
2017-07-10T18:04:13.437Z,29.45
2017-07-10T18:06:41.036Z,29.35
2017-07-10T18:09:08.731Z,29.23
2017-07-10T18:11:36.395Z,29.27
2017-07-10T18:14:04.053Z,29.16
2017-07-10T18:16:32.640Z,29.06
2017-07-10T18:19:00.244Z,29.09
2017-07-10T18:21:28.476Z,29.04
2017-07-10T18:23:56.999Z,28.95
2017-07-10T18:26:24.631Z,29.09
2017-07-10T18:28:52.232Z,28.98
2017-07-10T18:31:19.911Z,28.88
2017-07-10T18:33:47.572Z,28.82
2017-07-10T18:36:15.207Z,28.91
2017-07-10T18:38:43.077Z,28.94
2017-07-10T18:41:10.718Z,28.86
2017-07-10T18:43:38.339Z,28.76
2017-07-10T18:46:05.902Z,28.72
2017-07-10T18:48:33.485Z,28.70
2017-07-10T18:51:01.099Z,28.70
2017-07-10T18:53:28.932Z,28.74
2017-07-10T18:55:56.513Z,28.75
2017-07-10T18:58:24.338Z,28.63
2017-07-10T19:00:51.967Z,28.66
2017-07-10T19:03:20.350Z,28.68
2017-07-10T19:05:47.961Z,28.65
2017-07-10T19:08:15.771Z,28.49
2017-07-10T19:10:43.383Z,28.35
2017-07-10T19:13:10.979Z,28.19
2017-07-10T19:15:38.589Z,28.11
2017-07-10T19:18:07.831Z,28.07
2017-07-10T19:20:35.429Z,28.02
2017-07-10T19:23:03.123Z,28.09
2017-07-10T19:25:30.746Z,28.12
2017-07-10T19:27:58.276Z,28.11
2017-07-10T19:30:26.137Z,28.13
2017-07-10T19:32:53.945Z,27.96
2017-07-10T19:35:21.502Z,27.84
2017-07-10T19:37:49.707Z,27.78
2017-07-10T19:40:17.429Z,27.81
2017-07-10T19:42:45.034Z,27.69
2017-07-10T19:45:12.664Z,27.68
2017-07-10T19:47:40.281Z,27.60
2017-07-10T19:50:08.003Z,27.63
2017-07-10T19:52:35.754Z,27.65
2017-07-10T19:55:03.392Z,27.55
2017-07-10T19:57:31.075Z,27.51
2017-07-10T19:59:59.354Z,27.29
2017-07-10T20:02:27.001Z,27.29
2017-07-10T20:04:55.229Z,27.33
2017-07-10T20:07:22.895Z,27.24
2017-07-10T20:09:50.543Z,27.25
2017-07-10T20:12:18.953Z,27.13
2017-07-10T20:14:47.537Z,27.20
2017-07-10T20:17:15.340Z,27.18
2017-07-10T20:19:44.063Z,27.17
2017-07-10T20:22:11.813Z,27.16
2017-07-10T20:24:40.270Z,27.22
2017-07-10T20:27:07.873Z,27.22
2017-07-10T20:29:35.563Z,27.19
2017-07-10T20:32:04.866Z,27.13
2017-07-10T20:34:32.563Z,27.06
2017-07-10T20:37:00.298Z,27.00
2017-07-10T20:39:28.050Z,26.97
2017-07-10T20:41:57.798Z,26.94
2017-07-10T20:44:25.750Z,26.95
2017-07-10T20:46:53.480Z,26.84
2017-07-10T20:49:21.203Z,26.74
2017-07-10T20:51:48.948Z,26.73
2017-07-10T20:54:18.394Z,26.69
2017-07-10T20:56:46.588Z,26.66
2017-07-10T20:59:14.216Z,26.64
2017-07-10T21:01:41.874Z,26.62
2017-07-10T21:04:09.465Z,26.49
2017-07-10T21:06:37.110Z,26.37
2017-07-10T21:09:04.876Z,26.34
2017-07-10T21:11:32.540Z,26.38
2017-07-10T21:14:00.163Z,26.39
2017-07-10T21:16:28.622Z,26.33
2017-07-10T21:18:56.351Z,26.29
2017-07-10T21:21:25.111Z,26.18
2017-07-10T21:23:52.747Z,26.14
2017-07-10T21:26:21.397Z,25.99
2017-07-10T21:28:49.227Z,26.04
2017-07-10T21:31:17.959Z,25.98
2017-07-10T21:33:45.864Z,25.90
2017-07-10T21:36:15.233Z,25.86
2017-07-10T21:38:43.468Z,25.87
2017-07-10T21:41:11.715Z,25.77
2017-07-10T21:43:39.639Z,25.70
2017-07-10T21:46:07.279Z,25.71
2017-07-10T21:48:35.061Z,25.69
2017-07-10T21:51:02.642Z,25.68
2017-07-10T21:53:34.879Z,25.63
2017-07-10T21:56:02.506Z,25.61
2017-07-10T21:58:36.308Z,25.62
2017-07-10T22:01:06.963Z,25.62
2017-07-10T22:03:35.378Z,25.56
2017-07-10T22:06:05.821Z,25.57
2017-07-10T22:08:36.442Z,25.40
2017-07-10T22:11:05.437Z,25.38
2017-07-10T22:13:35.945Z,25.22
2017-07-10T22:16:06.490Z,25.16
2017-07-10T22:18:34.146Z,25.12
2017-07-10T22:21:02.516Z,25.05
2017-07-10T22:23:30.181Z,24.98
2017-07-10T22:25:57.990Z,24.84
2017-07-10T22:28:25.656Z,24.79
2017-07-10T22:30:53.328Z,24.72
2017-07-10T22:33:21.176Z,24.83
2017-07-10T22:35:48.922Z,24.70
2017-07-10T22:38:16.559Z,24.78
2017-07-10T22:40:44.585Z,24.80
2017-07-10T22:43:12.224Z,24.84
2017-07-10T22:45:39.834Z,24.83
2017-07-10T22:48:07.515Z,24.87
2017-07-10T22:50:35.174Z,24.73
2017-07-10T22:53:02.897Z,24.67
2017-07-10T22:55:30.533Z,24.71
2017-07-10T22:57:58.151Z,24.63
2017-07-10T23:00:25.896Z,24.65
2017-07-10T23:02:53.740Z,24.67
2017-07-10T23:05:21.573Z,24.76
2017-07-10T23:07:49.245Z,24.90
2017-07-10T23:10:17.005Z,24.90
2017-07-10T23:12:44.684Z,25.02
2017-07-10T23:15:12.392Z,25.03
2017-07-10T23:17:40.192Z,24.96
2017-07-10T23:20:08.513Z,25.02
2017-07-10T23:22:36.204Z,25.07
2017-07-10T23:25:03.841Z,25.00
2017-07-10T23:27:31.485Z,25.05
2017-07-10T23:30:00.103Z,25.12
2017-07-10T23:32:27.753Z,25.10
2017-07-10T23:34:55.543Z,25.08
2017-07-10T23:37:23.344Z,25.03
2017-07-10T23:39:51.122Z,24.95
2017-07-10T23:42:19.313Z,24.92
2017-07-10T23:44:46.887Z,24.97
2017-07-10T23:47:15.495Z,24.87
2017-07-10T23:49:43.182Z,24.82
2017-07-10T23:52:10.786Z,24.78
2017-07-10T23:54:38.426Z,24.73
2017-07-10T23:57:06.060Z,24.63
2017-07-10T23:59:33.702Z,24.72
